sensor_id;sensor_type;location;lat;lon;timestamp;temperature;humidity
50556;DHT22;36508;52.512;13.450;2023-07-31T00:02:22;16.30;99.90
50556;DHT22;36508;52.512;13.450;2023-07-31T00:04:48;16.40;99.90
50556;DHT22;36508;52.512;13.450;2023-07-31T00:07:14;16.30;99.90
50556;DHT22;36508;52.512;13.450;2023-07-31T00:09:40;16.30;99.90
50556;DHT22;36508;52.512;13.450;2023-07-31T00:12:06;16.30;99.90
50556;DHT22;36508;52.512;13.450;2023-07-31T00:14:31;16.30;99.90
50556;DHT22;36508;52.512;13.450;2023-07-31T00:16:57;16.40;99.90
50556;DHT22;36508;52.512;13.450;2023-07-31T00:19:22;16.40;99.90
50556;DHT22;36508;52.512;13.450;2023-07-31T00:21:48;16.40;99.90
50556;DHT22;36508;52.512;13.450;2023-07-31T00:24:13;16.50;99.90
50556;DHT22;36508;52.512;13.450;2023-07-31T00:26:39;16.50;99.90
50556;DHT22;36508;52.512;13.450;2023-07-31T00:29:04;16.50;99.90
50556;DHT22;36508;52.512;13.450;2023-07-31T00:31:30;16.40;99.90
50556;DHT22;36508;52.512;13.450;2023-07-31T00:33:56;16.40;99.90
50556;DHT22;36508;52.512;13.450;2023-07-31T00:36:21;16.50;99.90
50556;DHT22;36508;52.512;13.450;2023-07-31T00:38:47;16.50;99.90
50556;DHT22;36508;52.512;13.450;2023-07-31T00:41:12;16.60;99.90
50556;DHT22;36508;52.512;13.450;2023-07-31T00:43:38;16.60;99.90
50556;DHT22;36508;52.512;13.450;2023-07-31T00:46:04;16.60;99.90
50556;DHT22;36508;52.512;13.450;2023-07-31T00:48:30;16.60;99.90
50556;DHT22;36508;52.512;13.450;2023-07-31T00:50:56;16.60;99.90
50556;DHT22;36508;52.512;13.450;2023-07-31T00:53:22;16.60;99.90
50556;DHT22;36508;52.512;13.450;2023-07-31T00:55:48;16.60;99.90
50556;DHT22;36508;52.512;13.450;2023-07-31T00:58:14;16.60;99.90
50556;DHT22;36508;52.512;13.450;2023-07-31T01:00:39;16.70;99.90
50556;DHT22;36508;52.512;13.450;2023-07-31T01:03:08;16.70;99.90
50556;DHT22;36508;52.512;13.450;2023-07-31T01:08:40;16.90;99.90
50556;DHT22;36508;52.512;13.450;2023-07-31T01:11:19;17.10;99.90
50556;DHT22;36508;52.512;13.450;2023-07-31T01:13:47;17.00;99.90
50556;DHT22;36508;52.512;13.450;2023-07-31T01:16:13;16.80;99.90
50556;DHT22;36508;52.512;13.450;2023-07-31T01:18:38;16.80;99.90
50556;DHT22;36508;52.512;13.450;2023-07-31T01:21:21;16.80;99.90
50556;DHT22;36508;52.512;13.450;2023-07-31T01:27:18;16.70;99.90
50556;DHT22;36508;52.512;13.450;2023-07-31T01:29:50;16.70;99.90
50556;DHT22;36508;52.512;13.450;2023-07-31T01:32:18;16.80;99.90
50556;DHT22;36508;52.512;13.450;2023-07-31T01:34:46;16.80;99.90
50556;DHT22;36508;52.512;13.450;2023-07-31T01:37:12;16.90;99.90
50556;DHT22;36508;52.512;13.450;2023-07-31T01:39:38;16.90;99.90
50556;DHT22;36508;52.512;13.450;2023-07-31T01:42:03;17.00;99.90
50556;DHT22;36508;52.512;13.450;2023-07-31T01:44:29;17.00;99.90
50556;DHT22;36508;52.512;13.450;2023-07-31T01:46:55;17.00;99.90
50556;DHT22;36508;52.512;13.450;2023-07-31T01:49:20;17.00;99.90
50556;DHT22;36508;52.512;13.450;2023-07-31T01:51:46;17.00;99.90
50556;DHT22;36508;52.512;13.450;2023-07-31T01:54:11;17.00;99.90
50556;DHT22;36508;52.512;13.450;2023-07-31T01:56:37;17.00;99.90
50556;DHT22;36508;52.512;13.450;2023-07-31T01:59:02;17.10;99.90
50556;DHT22;36508;52.512;13.450;2023-07-31T02:01:28;17.10;99.90
50556;DHT22;36508;52.512;13.450;2023-07-31T02:03:53;17.20;99.90
50556;DHT22;36508;52.512;13.450;2023-07-31T02:06:19;17.10;99.90
50556;DHT22;36508;52.512;13.450;2023-07-31T02:08:45;17.10;99.90
50556;DHT22;36508;52.512;13.450;2023-07-31T02:11:10;17.10;99.90
50556;DHT22;36508;52.512;13.450;2023-07-31T02:13:36;17.10;99.90
50556;DHT22;36508;52.512;13.450;2023-07-31T02:16:01;17.10;99.90
50556;DHT22;36508;52.512;13.450;2023-07-31T02:18:27;16.90;99.90
50556;DHT22;36508;52.512;13.450;2023-07-31T02:20:56;16.80;99.90
50556;DHT22;36508;52.512;13.450;2023-07-31T02:23:21;16.90;99.90
50556;DHT22;36508;52.512;13.450;2023-07-31T02:25:47;16.90;99.90
50556;DHT22;36508;52.512;13.450;2023-07-31T02:28:13;17.20;99.90
50556;DHT22;36508;52.512;13.450;2023-07-31T02:30:38;17.00;99.90
50556;DHT22;36508;52.512;13.450;2023-07-31T02:33:05;16.90;99.90
50556;DHT22;36508;52.512;13.450;2023-07-31T02:35:31;17.00;99.90
50556;DHT22;36508;52.512;13.450;2023-07-31T02:37:56;17.10;99.90
50556;DHT22;36508;52.512;13.450;2023-07-31T02:40:22;17.30;99.90
50556;DHT22;36508;52.512;13.450;2023-07-31T02:42:48;17.10;99.90
50556;DHT22;36508;52.512;13.450;2023-07-31T02:45:14;17.20;99.90
50556;DHT22;36508;52.512;13.450;2023-07-31T02:47:39;17.20;99.90
50556;DHT22;36508;52.512;13.450;2023-07-31T02:50:05;17.30;99.90
50556;DHT22;36508;52.512;13.450;2023-07-31T02:52:31;17.30;99.90
50556;DHT22;36508;52.512;13.450;2023-07-31T02:54:57;17.30;99.90
50556;DHT22;36508;52.512;13.450;2023-07-31T02:57:23;17.30;99.90
50556;DHT22;36508;52.512;13.450;2023-07-31T02:59:49;17.30;99.90
50556;DHT22;36508;52.512;13.450;2023-07-31T03:02:14;17.30;99.90
50556;DHT22;36508;52.512;13.450;2023-07-31T03:04:40;17.00;99.90
50556;DHT22;36508;52.512;13.450;2023-07-31T03:07:05;16.80;99.90
50556;DHT22;36508;52.512;13.450;2023-07-31T03:09:31;16.70;99.90
50556;DHT22;36508;52.512;13.450;2023-07-31T03:11:56;16.70;99.90
50556;DHT22;36508;52.512;13.450;2023-07-31T03:14:22;16.70;99.90
50556;DHT22;36508;52.512;13.450;2023-07-31T03:16:48;16.60;99.90
50556;DHT22;36508;52.512;13.450;2023-07-31T03:19:14;16.60;99.90
50556;DHT22;36508;52.512;13.450;2023-07-31T03:21:40;16.50;99.90
50556;DHT22;36508;52.512;13.450;2023-07-31T03:24:05;16.50;99.90
50556;DHT22;36508;52.512;13.450;2023-07-31T03:26:32;16.50;99.90
50556;DHT22;36508;52.512;13.450;2023-07-31T03:28:57;16.40;99.90
50556;DHT22;36508;52.512;13.450;2023-07-31T03:31:23;16.40;99.90
50556;DHT22;36508;52.512;13.450;2023-07-31T03:33:49;16.20;99.90
50556;DHT22;36508;52.512;13.450;2023-07-31T03:36:14;16.20;99.90
50556;DHT22;36508;52.512;13.450;2023-07-31T03:38:40;16.30;99.90
50556;DHT22;36508;52.512;13.450;2023-07-31T03:41:05;16.30;99.90
50556;DHT22;36508;52.512;13.450;2023-07-31T03:43:32;16.40;99.90
50556;DHT22;36508;52.512;13.450;2023-07-31T03:45:59;16.40;99.90
50556;DHT22;36508;52.512;13.450;2023-07-31T03:48:25;16.60;99.90
50556;DHT22;36508;52.512;13.450;2023-07-31T03:50:51;16.60;99.90
50556;DHT22;36508;52.512;13.450;2023-07-31T03:53:16;16.60;99.90
50556;DHT22;36508;52.512;13.450;2023-07-31T03:55:42;16.60;99.90
50556;DHT22;36508;52.512;13.450;2023-07-31T03:58:07;16.50;99.90
50556;DHT22;36508;52.512;13.450;2023-07-31T04:00:33;16.50;99.90
50556;DHT22;36508;52.512;13.450;2023-07-31T04:02:59;16.50;99.90
50556;DHT22;36508;52.512;13.450;2023-07-31T04:05:24;16.60;99.90
50556;DHT22;36508;52.512;13.450;2023-07-31T04:07:50;16.60;99.90
50556;DHT22;36508;52.512;13.450;2023-07-31T04:10:15;16.70;99.90
50556;DHT22;36508;52.512;13.450;2023-07-31T04:12:41;16.60;99.90
50556;DHT22;36508;52.512;13.450;2023-07-31T04:15:06;16.70;99.90
50556;DHT22;36508;52.512;13.450;2023-07-31T04:17:32;16.60;99.90
50556;DHT22;36508;52.512;13.450;2023-07-31T04:19:58;16.60;99.90
50556;DHT22;36508;52.512;13.450;2023-07-31T04:22:23;16.60;99.90
50556;DHT22;36508;52.512;13.450;2023-07-31T04:24:49;16.60;99.90
50556;DHT22;36508;52.512;13.450;2023-07-31T04:27:14;16.70;99.90
50556;DHT22;36508;52.512;13.450;2023-07-31T04:29:40;16.80;99.90
50556;DHT22;36508;52.512;13.450;2023-07-31T04:32:08;16.90;99.90
50556;DHT22;36508;52.512;13.450;2023-07-31T04:34:34;16.90;99.90
50556;DHT22;36508;52.512;13.450;2023-07-31T04:36:59;16.70;99.90
50556;DHT22;36508;52.512;13.450;2023-07-31T04:39:25;16.60;99.90
50556;DHT22;36508;52.512;13.450;2023-07-31T04:41:50;16.60;99.90
50556;DHT22;36508;52.512;13.450;2023-07-31T04:44:16;16.70;99.90
50556;DHT22;36508;52.512;13.450;2023-07-31T04:46:41;16.70;99.90
50556;DHT22;36508;52.512;13.450;2023-07-31T04:49:07;16.70;99.90
50556;DHT22;36508;52.512;13.450;2023-07-31T04:51:32;16.60;99.90
50556;DHT22;36508;52.512;13.450;2023-07-31T04:53:58;16.50;99.90
50556;DHT22;36508;52.512;13.450;2023-07-31T04:56:23;16.40;99.90
50556;DHT22;36508;52.512;13.450;2023-07-31T04:58:49;16.40;99.90
50556;DHT22;36508;52.512;13.450;2023-07-31T05:01:14;16.30;99.90
50556;DHT22;36508;52.512;13.450;2023-07-31T05:03:40;16.30;99.90
50556;DHT22;36508;52.512;13.450;2023-07-31T05:06:06;16.30;99.90
50556;DHT22;36508;52.512;13.450;2023-07-31T05:08:31;16.40;99.90
50556;DHT22;36508;52.512;13.450;2023-07-31T05:10:57;16.40;99.90
50556;DHT22;36508;52.512;13.450;2023-07-31T05:13:22;16.60;99.90
50556;DHT22;36508;52.512;13.450;2023-07-31T05:15:48;16.70;99.90
50556;DHT22;36508;52.512;13.450;2023-07-31T05:18:15;16.70;99.90
50556;DHT22;36508;52.512;13.450;2023-07-31T05:20:40;16.70;99.90
50556;DHT22;36508;52.512;13.450;2023-07-31T05:23:06;16.80;99.90
50556;DHT22;36508;52.512;13.450;2023-07-31T05:25:32;16.70;99.90
50556;DHT22;36508;52.512;13.450;2023-07-31T05:27:57;16.90;99.90
50556;DHT22;36508;52.512;13.450;2023-07-31T05:30:23;17.00;99.90
50556;DHT22;36508;52.512;13.450;2023-07-31T05:32:48;16.90;99.90
50556;DHT22;36508;52.512;13.450;2023-07-31T05:35:14;16.70;99.90
50556;DHT22;36508;52.512;13.450;2023-07-31T05:37:40;16.70;99.90
50556;DHT22;36508;52.512;13.450;2023-07-31T05:40:06;16.70;99.90
50556;DHT22;36508;52.512;13.450;2023-07-31T05:42:31;16.60;99.90
50556;DHT22;36508;52.512;13.450;2023-07-31T05:44:57;16.70;99.90
50556;DHT22;36508;52.512;13.450;2023-07-31T05:47:22;16.80;99.90
50556;DHT22;36508;52.512;13.450;2023-07-31T05:49:48;16.80;99.90
50556;DHT22;36508;52.512;13.450;2023-07-31T05:52:14;16.70;99.90
50556;DHT22;36508;52.512;13.450;2023-07-31T05:54:41;16.70;99.90
50556;DHT22;36508;52.512;13.450;2023-07-31T05:57:06;16.70;99.90
50556;DHT22;36508;52.512;13.450;2023-07-31T05:59:32;16.70;99.90
50556;DHT22;36508;52.512;13.450;2023-07-31T06:01:58;16.70;99.90
50556;DHT22;36508;52.512;13.450;2023-07-31T06:04:24;16.80;99.90
50556;DHT22;36508;52.512;13.450;2023-07-31T06:06:51;16.60;99.90
50556;DHT22;36508;52.512;13.450;2023-07-31T06:09:16;16.70;99.90
50556;DHT22;36508;52.512;13.450;2023-07-31T06:11:42;16.70;99.90
50556;DHT22;36508;52.512;13.450;2023-07-31T06:14:07;16.80;99.90
50556;DHT22;36508;52.512;13.450;2023-07-31T06:16:33;16.70;99.90
50556;DHT22;36508;52.512;13.450;2023-07-31T06:18:58;16.80;99.90
50556;DHT22;36508;52.512;13.450;2023-07-31T06:21:24;16.90;99.90
50556;DHT22;36508;52.512;13.450;2023-07-31T06:23:50;16.90;99.90
50556;DHT22;36508;52.512;13.450;2023-07-31T06:26:15;16.90;99.90
50556;DHT22;36508;52.512;13.450;2023-07-31T06:28:43;16.90;99.90
50556;DHT22;36508;52.512;13.450;2023-07-31T06:31:09;16.90;99.90
50556;DHT22;36508;52.512;13.450;2023-07-31T06:33:34;16.90;99.90
50556;DHT22;36508;52.512;13.450;2023-07-31T06:36:00;17.00;99.90
50556;DHT22;36508;52.512;13.450;2023-07-31T06:38:26;17.10;99.90
50556;DHT22;36508;52.512;13.450;2023-07-31T06:40:52;17.10;99.90
50556;DHT22;36508;52.512;13.450;2023-07-31T06:43:18;17.10;99.90
50556;DHT22;36508;52.512;13.450;2023-07-31T06:45:43;17.10;99.90
50556;DHT22;36508;52.512;13.450;2023-07-31T06:48:09;17.20;99.90
50556;DHT22;36508;52.512;13.450;2023-07-31T06:50:35;17.10;99.90
50556;DHT22;36508;52.512;13.450;2023-07-31T06:53:00;17.10;99.90
50556;DHT22;36508;52.512;13.450;2023-07-31T06:55:26;17.10;99.90
50556;DHT22;36508;52.512;13.450;2023-07-31T06:57:54;17.20;99.90
50556;DHT22;36508;52.512;13.450;2023-07-31T07:00:21;17.00;99.90
50556;DHT22;36508;52.512;13.450;2023-07-31T07:02:47;17.00;99.90
50556;DHT22;36508;52.512;13.450;2023-07-31T07:05:14;17.10;99.90
50556;DHT22;36508;52.512;13.450;2023-07-31T07:07:40;17.20;99.90
50556;DHT22;36508;52.512;13.450;2023-07-31T07:10:06;17.20;99.90
50556;DHT22;36508;52.512;13.450;2023-07-31T07:12:33;17.10;99.90
50556;DHT22;36508;52.512;13.450;2023-07-31T07:14:59;17.00;99.90
50556;DHT22;36508;52.512;13.450;2023-07-31T07:17:26;17.10;99.90
50556;DHT22;36508;52.512;13.450;2023-07-31T07:19:51;17.00;99.90
50556;DHT22;36508;52.512;13.450;2023-07-31T07:22:17;17.00;99.90
50556;DHT22;36508;52.512;13.450;2023-07-31T07:24:43;16.90;99.90
50556;DHT22;36508;52.512;13.450;2023-07-31T07:27:09;16.90;99.90
50556;DHT22;36508;52.512;13.450;2023-07-31T07:29:34;17.10;99.90
50556;DHT22;36508;52.512;13.450;2023-07-31T07:32:00;17.20;99.90
50556;DHT22;36508;52.512;13.450;2023-07-31T07:34:27;17.40;99.90
50556;DHT22;36508;52.512;13.450;2023-07-31T07:36:53;17.50;99.90
50556;DHT22;36508;52.512;13.450;2023-07-31T07:39:19;17.60;99.90
50556;DHT22;36508;52.512;13.450;2023-07-31T07:41:46;17.70;99.90
50556;DHT22;36508;52.512;13.450;2023-07-31T07:44:12;17.60;99.90
50556;DHT22;36508;52.512;13.450;2023-07-31T07:46:38;17.50;99.90
50556;DHT22;36508;52.512;13.450;2023-07-31T07:49:03;17.50;99.90
50556;DHT22;36508;52.512;13.450;2023-07-31T07:51:29;17.50;99.90
50556;DHT22;36508;52.512;13.450;2023-07-31T07:53:57;17.60;99.90
50556;DHT22;36508;52.512;13.450;2023-07-31T07:56:23;17.80;99.90
50556;DHT22;36508;52.512;13.450;2023-07-31T07:58:49;17.90;99.90
50556;DHT22;36508;52.512;13.450;2023-07-31T08:01:15;17.80;99.90
50556;DHT22;36508;52.512;13.450;2023-07-31T08:03:41;17.80;99.90
50556;DHT22;36508;52.512;13.450;2023-07-31T08:06:07;17.80;99.90
50556;DHT22;36508;52.512;13.450;2023-07-31T08:08:35;17.70;99.90
50556;DHT22;36508;52.512;13.450;2023-07-31T08:11:00;17.60;99.90
50556;DHT22;36508;52.512;13.450;2023-07-31T08:13:26;17.60;99.90
50556;DHT22;36508;52.512;13.450;2023-07-31T08:15:52;17.60;99.90
50556;DHT22;36508;52.512;13.450;2023-07-31T08:18:17;17.60;99.90
50556;DHT22;36508;52.512;13.450;2023-07-31T08:20:44;17.60;99.90
50556;DHT22;36508;52.512;13.450;2023-07-31T08:23:10;17.50;99.90
50556;DHT22;36508;52.512;13.450;2023-07-31T08:25:36;17.40;99.90
50556;DHT22;36508;52.512;13.450;2023-07-31T08:28:05;17.40;99.90
50556;DHT22;36508;52.512;13.450;2023-07-31T08:30:31;17.40;99.90
50556;DHT22;36508;52.512;13.450;2023-07-31T08:32:57;17.60;99.90
50556;DHT22;36508;52.512;13.450;2023-07-31T08:35:24;17.60;99.90
50556;DHT22;36508;52.512;13.450;2023-07-31T08:37:50;17.50;99.90
50556;DHT22;36508;52.512;13.450;2023-07-31T08:40:15;17.50;99.90
50556;DHT22;36508;52.512;13.450;2023-07-31T08:42:45;17.40;99.90
50556;DHT22;36508;52.512;13.450;2023-07-31T08:45:17;17.50;99.90
50556;DHT22;36508;52.512;13.450;2023-07-31T08:47:48;17.60;99.90
50556;DHT22;36508;52.512;13.450;2023-07-31T08:50:16;17.50;99.90
50556;DHT22;36508;52.512;13.450;2023-07-31T08:52:42;17.60;99.90
50556;DHT22;36508;52.512;13.450;2023-07-31T08:55:08;17.70;99.90
50556;DHT22;36508;52.512;13.450;2023-07-31T08:57:35;17.80;99.90
50556;DHT22;36508;52.512;13.450;2023-07-31T09:00:02;17.70;99.90
50556;DHT22;36508;52.512;13.450;2023-07-31T09:02:38;17.70;99.90
50556;DHT22;36508;52.512;13.450;2023-07-31T09:05:06;17.80;99.90
50556;DHT22;36508;52.512;13.450;2023-07-31T09:07:34;18.00;99.90
50556;DHT22;36508;52.512;13.450;2023-07-31T09:10:00;17.90;99.90
50556;DHT22;36508;52.512;13.450;2023-07-31T09:12:26;17.80;99.90
50556;DHT22;36508;52.512;13.450;2023-07-31T09:14:51;17.90;99.90
50556;DHT22;36508;52.512;13.450;2023-07-31T09:17:32;18.10;99.90
50556;DHT22;36508;52.512;13.450;2023-07-31T09:19:58;18.30;99.90
50556;DHT22;36508;52.512;13.450;2023-07-31T09:22:37;18.20;99.90
50556;DHT22;36508;52.512;13.450;2023-07-31T09:25:23;18.00;99.90
50556;DHT22;36508;52.512;13.450;2023-07-31T09:28:00;17.90;99.90
50556;DHT22;36508;52.512;13.450;2023-07-31T09:30:26;17.80;99.90
50556;DHT22;36508;52.512;13.450;2023-07-31T09:33:03;17.70;99.90
50556;DHT22;36508;52.512;13.450;2023-07-31T09:35:33;17.70;99.90
50556;DHT22;36508;52.512;13.450;2023-07-31T09:38:03;17.70;99.90
50556;DHT22;36508;52.512;13.450;2023-07-31T09:40:33;17.60;99.90
50556;DHT22;36508;52.512;13.450;2023-07-31T09:43:04;17.40;99.90
50556;DHT22;36508;52.512;13.450;2023-07-31T09:45:35;17.40;99.90
50556;DHT22;36508;52.512;13.450;2023-07-31T09:48:02;17.30;99.90
50556;DHT22;36508;52.512;13.450;2023-07-31T09:50:28;17.40;99.90
50556;DHT22;36508;52.512;13.450;2023-07-31T09:52:54;17.40;99.90
50556;DHT22;36508;52.512;13.450;2023-07-31T09:55:20;17.40;99.90
50556;DHT22;36508;52.512;13.450;2023-07-31T09:57:47;17.50;99.90
50556;DHT22;36508;52.512;13.450;2023-07-31T10:00:16;17.50;99.90
50556;DHT22;36508;52.512;13.450;2023-07-31T10:02:46;17.60;99.90
50556;DHT22;36508;52.512;13.450;2023-07-31T10:05:14;17.70;99.90
50556;DHT22;36508;52.512;13.450;2023-07-31T10:07:47;18.00;99.90
50556;DHT22;36508;52.512;13.450;2023-07-31T10:10:16;17.90;99.90
50556;DHT22;36508;52.512;13.450;2023-07-31T10:12:42;18.00;99.90
50556;DHT22;36508;52.512;13.450;2023-07-31T10:15:09;18.30;99.90
50556;DHT22;36508;52.512;13.450;2023-07-31T10:17:36;18.40;99.90
50556;DHT22;36508;52.512;13.450;2023-07-31T10:20:03;18.50;99.90
50556;DHT22;36508;52.512;13.450;2023-07-31T10:22:31;18.40;99.90
50556;DHT22;36508;52.512;13.450;2023-07-31T10:24:59;18.40;99.90
50556;DHT22;36508;52.512;13.450;2023-07-31T10:27:25;18.40;99.90
50556;DHT22;36508;52.512;13.450;2023-07-31T10:29:53;18.30;99.90
50556;DHT22;36508;52.512;13.450;2023-07-31T10:32:20;18.20;99.90
50556;DHT22;36508;52.512;13.450;2023-07-31T10:34:47;18.20;99.90
50556;DHT22;36508;52.512;13.450;2023-07-31T10:37:31;18.10;99.90
50556;DHT22;36508;52.512;13.450;2023-07-31T10:40:05;18.00;99.90
50556;DHT22;36508;52.512;13.450;2023-07-31T10:42:52;18.30;99.90
50556;DHT22;36508;52.512;13.450;2023-07-31T10:48:01;18.50;99.90
50556;DHT22;36508;52.512;13.450;2023-07-31T10:50:28;18.70;99.90
50556;DHT22;36508;52.512;13.450;2023-07-31T10:55:42;19.90;99.90
50556;DHT22;36508;52.512;13.450;2023-07-31T10:58:12;20.70;99.90
50556;DHT22;36508;52.512;13.450;2023-07-31T11:00:42;20.60;99.90
50556;DHT22;36508;52.512;13.450;2023-07-31T11:03:10;20.90;99.90
50556;DHT22;36508;52.512;13.450;2023-07-31T11:08:16;21.20;99.90
50556;DHT22;36508;52.512;13.450;2023-07-31T11:10:43;21.00;99.90
50556;DHT22;36508;52.512;13.450;2023-07-31T11:13:09;20.80;99.90
50556;DHT22;36508;52.512;13.450;2023-07-31T11:15:35;20.60;99.90
50556;DHT22;36508;52.512;13.450;2023-07-31T11:18:02;20.60;99.90
50556;DHT22;36508;52.512;13.450;2023-07-31T11:20:32;20.30;99.90
50556;DHT22;36508;52.512;13.450;2023-07-31T11:23:06;20.10;99.90
50556;DHT22;36508;52.512;13.450;2023-07-31T11:25:32;20.20;99.90
50556;DHT22;36508;52.512;13.450;2023-07-31T11:28:17;20.70;99.90
50556;DHT22;36508;52.512;13.450;2023-07-31T11:30:45;20.70;99.90
50556;DHT22;36508;52.512;13.450;2023-07-31T11:33:12;20.70;99.90
50556;DHT22;36508;52.512;13.450;2023-07-31T11:35:45;20.40;99.90
50556;DHT22;36508;52.512;13.450;2023-07-31T11:38:27;20.40;99.90
50556;DHT22;36508;52.512;13.450;2023-07-31T11:40:54;20.40;99.90
50556;DHT22;36508;52.512;13.450;2023-07-31T11:43:21;20.50;99.90
50556;DHT22;36508;52.512;13.450;2023-07-31T11:45:48;20.30;99.90
50556;DHT22;36508;52.512;13.450;2023-07-31T11:48:31;20.30;99.90
50556;DHT22;36508;52.512;13.450;2023-07-31T11:51:00;20.30;99.90
50556;DHT22;36508;52.512;13.450;2023-07-31T11:53:49;20.30;99.90
50556;DHT22;36508;52.512;13.450;2023-07-31T11:56:18;20.40;99.90
50556;DHT22;36508;52.512;13.450;2023-07-31T11:58:46;20.40;99.90
50556;DHT22;36508;52.512;13.450;2023-07-31T12:01:14;20.30;99.90
50556;DHT22;36508;52.512;13.450;2023-07-31T12:03:40;20.30;99.90
50556;DHT22;36508;52.512;13.450;2023-07-31T12:06:08;20.30;99.90
50556;DHT22;36508;52.512;13.450;2023-07-31T12:08:33;20.30;99.90
50556;DHT22;36508;52.512;13.450;2023-07-31T12:11:06;20.30;99.90
50556;DHT22;36508;52.512;13.450;2023-07-31T12:13:32;20.30;99.90
50556;DHT22;36508;52.512;13.450;2023-07-31T12:16:00;20.30;99.90
50556;DHT22;36508;52.512;13.450;2023-07-31T12:18:29;20.40;99.90
50556;DHT22;36508;52.512;13.450;2023-07-31T12:20:55;20.50;99.90
50556;DHT22;36508;52.512;13.450;2023-07-31T12:23:27;20.60;99.90
50556;DHT22;36508;52.512;13.450;2023-07-31T12:26:10;20.70;99.90
50556;DHT22;36508;52.512;13.450;2023-07-31T12:28:46;20.70;99.90
50556;DHT22;36508;52.512;13.450;2023-07-31T12:31:22;20.60;99.90
50556;DHT22;36508;52.512;13.450;2023-07-31T12:33:50;20.60;99.90
50556;DHT22;36508;52.512;13.450;2023-07-31T12:36:17;20.60;99.90
50556;DHT22;36508;52.512;13.450;2023-07-31T12:38:44;20.80;99.90
50556;DHT22;36508;52.512;13.450;2023-07-31T12:41:10;21.20;99.90
50556;DHT22;36508;52.512;13.450;2023-07-31T12:43:37;21.20;99.90
50556;DHT22;36508;52.512;13.450;2023-07-31T12:46:03;21.10;99.90
50556;DHT22;36508;52.512;13.450;2023-07-31T12:48:29;21.00;99.90
50556;DHT22;36508;52.512;13.450;2023-07-31T12:50:54;21.20;99.90
50556;DHT22;36508;52.512;13.450;2023-07-31T12:53:20;21.20;99.90
50556;DHT22;36508;52.512;13.450;2023-07-31T12:55:46;21.10;99.90
50556;DHT22;36508;52.512;13.450;2023-07-31T12:58:12;21.00;99.90
50556;DHT22;36508;52.512;13.450;2023-07-31T13:00:38;20.90;99.90
50556;DHT22;36508;52.512;13.450;2023-07-31T13:03:04;21.00;99.90
50556;DHT22;36508;52.512;13.450;2023-07-31T13:05:29;21.00;99.90
50556;DHT22;36508;52.512;13.450;2023-07-31T13:07:55;21.10;99.90
50556;DHT22;36508;52.512;13.450;2023-07-31T13:10:22;21.20;99.90
50556;DHT22;36508;52.512;13.450;2023-07-31T13:12:48;21.00;99.90
50556;DHT22;36508;52.512;13.450;2023-07-31T13:15:14;20.60;99.90
50556;DHT22;36508;52.512;13.450;2023-07-31T13:17:39;20.60;99.90
50556;DHT22;36508;52.512;13.450;2023-07-31T13:20:05;20.70;99.90
50556;DHT22;36508;52.512;13.450;2023-07-31T13:22:31;20.70;99.90
50556;DHT22;36508;52.512;13.450;2023-07-31T13:24:57;20.80;99.90
50556;DHT22;36508;52.512;13.450;2023-07-31T13:27:22;20.70;99.90
50556;DHT22;36508;52.512;13.450;2023-07-31T13:29:49;20.70;99.90
50556;DHT22;36508;52.512;13.450;2023-07-31T13:32:19;20.60;99.90
50556;DHT22;36508;52.512;13.450;2023-07-31T13:34:46;20.70;99.90
50556;DHT22;36508;52.512;13.450;2023-07-31T13:37:12;20.80;99.90
50556;DHT22;36508;52.512;13.450;2023-07-31T13:39:38;20.90;99.90
50556;DHT22;36508;52.512;13.450;2023-07-31T13:42:04;21.10;99.90
50556;DHT22;36508;52.512;13.450;2023-07-31T13:44:37;21.30;99.90
50556;DHT22;36508;52.512;13.450;2023-07-31T13:47:05;21.30;99.90
50556;DHT22;36508;52.512;13.450;2023-07-31T13:49:31;21.30;99.90
50556;DHT22;36508;52.512;13.450;2023-07-31T13:51:57;21.50;99.90
50556;DHT22;36508;52.512;13.450;2023-07-31T13:54:23;21.70;99.90
50556;DHT22;36508;52.512;13.450;2023-07-31T13:56:49;21.70;99.90
50556;DHT22;36508;52.512;13.450;2023-07-31T13:59:15;21.90;99.90
50556;DHT22;36508;52.512;13.450;2023-07-31T14:01:42;21.90;99.90
50556;DHT22;36508;52.512;13.450;2023-07-31T14:04:08;21.80;99.90
50556;DHT22;36508;52.512;13.450;2023-07-31T14:06:33;21.50;99.90
50556;DHT22;36508;52.512;13.450;2023-07-31T14:08:59;21.40;99.90
50556;DHT22;36508;52.512;13.450;2023-07-31T14:11:25;21.50;99.90
50556;DHT22;36508;52.512;13.450;2023-07-31T14:13:51;21.50;99.90
50556;DHT22;36508;52.512;13.450;2023-07-31T14:16:17;21.60;99.90
50556;DHT22;36508;52.512;13.450;2023-07-31T14:18:43;21.70;99.90
50556;DHT22;36508;52.512;13.450;2023-07-31T14:21:08;21.70;99.90
50556;DHT22;36508;52.512;13.450;2023-07-31T14:23:34;21.80;99.90
50556;DHT22;36508;52.512;13.450;2023-07-31T14:26:00;21.60;99.90
50556;DHT22;36508;52.512;13.450;2023-07-31T14:28:25;21.40;99.90
50556;DHT22;36508;52.512;13.450;2023-07-31T14:30:51;21.40;99.90
50556;DHT22;36508;52.512;13.450;2023-07-31T14:33:16;21.40;99.90
50556;DHT22;36508;52.512;13.450;2023-07-31T14:35:42;21.50;99.90
50556;DHT22;36508;52.512;13.450;2023-07-31T14:38:08;21.60;99.90
50556;DHT22;36508;52.512;13.450;2023-07-31T14:40:33;21.70;99.90
50556;DHT22;36508;52.512;13.450;2023-07-31T14:42:59;21.70;99.90
50556;DHT22;36508;52.512;13.450;2023-07-31T14:45:24;21.70;99.90
50556;DHT22;36508;52.512;13.450;2023-07-31T14:47:50;21.70;99.90
50556;DHT22;36508;52.512;13.450;2023-07-31T14:50:16;21.60;99.90
50556;DHT22;36508;52.512;13.450;2023-07-31T14:52:41;21.50;99.90
50556;DHT22;36508;52.512;13.450;2023-07-31T14:55:07;21.50;99.90
50556;DHT22;36508;52.512;13.450;2023-07-31T14:57:34;21.60;99.90
50556;DHT22;36508;52.512;13.450;2023-07-31T15:00:00;21.60;99.90
50556;DHT22;36508;52.512;13.450;2023-07-31T15:02:26;21.50;99.90
50556;DHT22;36508;52.512;13.450;2023-07-31T15:04:52;21.50;99.90
50556;DHT22;36508;52.512;13.450;2023-07-31T15:07:18;21.60;99.90
50556;DHT22;36508;52.512;13.450;2023-07-31T15:09:43;21.50;99.90
50556;DHT22;36508;52.512;13.450;2023-07-31T15:12:09;21.40;99.90
50556;DHT22;36508;52.512;13.450;2023-07-31T15:14:35;21.40;99.90
50556;DHT22;36508;52.512;13.450;2023-07-31T15:17:00;21.50;99.90
50556;DHT22;36508;52.512;13.450;2023-07-31T15:19:26;21.40;99.90
50556;DHT22;36508;52.512;13.450;2023-07-31T15:21:51;21.40;99.90
50556;DHT22;36508;52.512;13.450;2023-07-31T15:24:17;21.40;99.90
50556;DHT22;36508;52.512;13.450;2023-07-31T15:26:43;21.30;99.90
50556;DHT22;36508;52.512;13.450;2023-07-31T15:29:08;21.20;99.90